Map

Track Data

SID SEASON NUMBER BASIN SUBBASIN NAME ISO_TIME NATURE LAT LON WMO_WIND WMO_PRES WMO_AGENCY TRACK_TYPE DIST2LAND LANDFALL IFLAG USA_AGENCY USA_ATCF_ID USA_LAT USA_LON USA_RECORD USA_STATUS USA_WIND USA_PRES USA_SSHS USA_R34_NE USA_R34_SE USA_R34_SW USA_R34_NW USA_R50_NE USA_R50_SE USA_R50_SW USA_R50_NW USA_R64_NE USA_R64_SE USA_R64_SW USA_R64_NW USA_POCI USA_ROCI USA_RMW USA_EYE TOKYO_LAT TOKYO_LON TOKYO_GRADE TOKYO_WIND TOKYO_PRES TOKYO_R50_DIR TOKYO_R50_LONG TOKYO_R50_SHORT TOKYO_R30_DIR TOKYO_R30_LONG TOKYO_R30_SHORT TOKYO_LAND CMA_LAT CMA_LON CMA_CAT CMA_WIND CMA_PRES HKO_LAT HKO_LON HKO_CAT HKO_WIND HKO_PRES NEWDELHI_LAT NEWDELHI_LON NEWDELHI_GRADE NEWDELHI_WIND NEWDELHI_PRES NEWDELHI_CI NEWDELHI_DP NEWDELHI_POCI REUNION_LAT REUNION_LON REUNION_TYPE REUNION_WIND REUNION_PRES REUNION_TNUM REUNION_CI REUNION_RMW REUNION_R34_NE REUNION_R34_SE REUNION_R34_SW REUNION_R34_NW REUNION_R50_NE REUNION_R50_SE REUNION_R50_SW REUNION_R50_NW REUNION_R64_NE REUNION_R64_SE REUNION_R64_SW REUNION_R64_NW BOM_LAT BOM_LON BOM_TYPE BOM_WIND BOM_PRES BOM_TNUM BOM_CI BOM_RMW BOM_R34_NE BOM_R34_SE BOM_R34_SW BOM_R34_NW BOM_R50_NE BOM_R50_SE BOM_R50_SW BOM_R50_NW BOM_R64_NE BOM_R64_SE BOM_R64_SW BOM_R64_NW BOM_ROCI BOM_POCI BOM_EYE BOM_POS_METHOD BOM_PRES_METHOD NADI_LAT NADI_LON NADI_CAT NADI_WIND NADI_PRES WELLINGTON_LAT WELLINGTON_LON WELLINGTON_WIND WELLINGTON_PRES DS824_LAT DS824_LON DS824_STAGE DS824_WIND DS824_PRES TD9636_LAT TD9636_LON TD9636_STAGE TD9636_WIND TD9636_PRES TD9635_LAT TD9635_LON TD9635_WIND TD9635_PRES TD9635_ROCI NEUMANN_LAT NEUMANN_LON NEUMANN_CLASS NEUMANN_WIND NEUMANN_PRES MLC_LAT MLC_LON MLC_CLASS MLC_WIND MLC_PRES USA_GUST BOM_GUST BOM_GUST_PER REUNION_GUST REUNION_GUST_PER USA_SEAHGT USA_SEARAD_NE USA_SEARAD_SE USA_SEARAD_SW USA_SEARAD_NW STORM_SPEED STORM_DIR
1908229N20124 1908 31 WP MM NOT_NAMED 1908-08-15 16:00:00 NR 20.4000 123.800 main 273 273 __________O___ -1 20.4000 123.800 7 21 344
1908229N20124 1908 31 WP MM NOT_NAMED 1908-08-15 18:00:00 NR 21.0648 123.594 main 293 230 __________P___ -1 21.0648 123.594 7 21 344
1908229N20124 1908 31 WP MM NOT_NAMED 1908-08-15 21:00:00 NR 22.0314 123.292 main 230 165 __________P___ -1 22.0314 123.292 7 19 344
1908229N20124 1908 31 WP MM NOT_NAMED 1908-08-16 00:00:00 NR 22.9194 123.012 main 165 127 __________P___ -1 22.9194 123.012 7 17 344
1908229N20124 1908 31 WP MM NOT_NAMED 1908-08-16 03:00:00 NR 23.6818 122.769 main 127 105 __________P___ -1 23.6818 122.769 7 15 344
1908229N20124 1908 31 WP MM NOT_NAMED 1908-08-16 04:00:00 NR 23.9000 122.700 main 105 74 __________O___ -1 23.9000 122.700 4 12 344
1908229N20124 1908 31 WP MM NOT_NAMED 1908-08-16 06:00:00 NR 24.2773 122.580 main 74 52 __________P___ -1 24.2773 122.580 4 10 343
1908229N20124 1908 31 WP MM NOT_NAMED 1908-08-16 09:00:00 NR 24.7238 122.434 main 52 30 __________P___ -1 24.7238 122.434 4 8 342
1908229N20124 1908 31 WP MM NOT_NAMED 1908-08-16 12:00:00 NR 25.0770 122.302 main 32 30 __________P___ -1 25.0770 122.302 4 7 340
1908229N20124 1908 31 WP MM NOT_NAMED 1908-08-16 15:00:00 NR 25.3932 122.157 main 49 45 __________P___ -1 25.3932 122.157 4 7 337
1908229N20124 1908 31 WP MM NOT_NAMED 1908-08-16 16:00:00 NR 25.5000 122.100 main 56 56 __________O___ -1 25.5000 122.100 4 8 335
1908229N20124 1908 31 WP MM NOT_NAMED 1908-08-16 18:00:00 NR 25.7555 121.971 main 78 73 __________P___ -1 25.7555 121.971 4 8 334
1908229N20124 1908 31 WP MM NOT_NAMED 1908-08-16 21:00:00 NR 26.1325 121.754 main 102 112 __________P___ -1 26.1325 121.754 4 9 331
1908229N20124 1908 31 WP MM NOT_NAMED 1908-08-17 00:00:00 NR 26.5049 121.501 main 126 76 __________P___ -1 26.5049 121.501 4 9 327
1908229N20124 1908 31 WP MM NOT_NAMED 1908-08-17 03:00:00 NR 26.8760 121.208 main 76 63 __________P___ -1 26.8760 121.208 4 9 324
1908229N20124 1908 31 WP MM NOT_NAMED 1908-08-17 04:00:00 NR 27.0000 121.100 main 63 29 __________O___ -1 27.0000 121.100 2 10 324
1908229N20124 1908 31 WP MM NOT_NAMED 1908-08-17 06:00:00 NR 27.2680 120.889 main 29 0 __________P___ -1 27.2680 120.889 2 10 323
1908229N20124 1908 31 WP MM NOT_NAMED 1908-08-17 09:00:00 NR 27.6704 120.534 main 0 0 __________P___ -1 27.6704 120.534 2 10 319
1908229N20124 1908 31 WP MM NOT_NAMED 1908-08-17 12:00:00 NR 28.0543 120.129 main 0 0 __________P___ -1 28.0543 120.129 2 11 314
1908229N20124 1908 31 WP MM NOT_NAMED 1908-08-17 15:00:00 NR 28.3981 119.668 main 0 0 __________P___ -1 28.3981 119.668 2 11 309
1908229N20124 1908 31 WP MM NOT_NAMED 1908-08-17 16:00:00 NR 28.5000 119.500 main 0 0 __________O___ -1 28.5000 119.500 2 11 303
1908229N20124 1908 31 WP MM NOT_NAMED 1908-08-17 18:00:00 NR 28.6942 119.154 main 0 0 __________P___ -1 28.6942 119.154 2 11 299
1908229N20124 1908 31 WP MM NOT_NAMED 1908-08-17 21:00:00 NR 28.9418 118.584 main 0 0 __________P___ -1 28.9418 118.584 2 11 293
1908229N20124 1908 31 WP MM NOT_NAMED 1908-08-18 00:00:00 NR 29.1341 117.968 main 0 0 __________P___ -1 29.1341 117.968 2 12 286
1908229N20124 1908 31 WP MM NOT_NAMED 1908-08-18 03:00:00 NR 29.2685 117.320 main 0 0 __________P___ -1 29.2685 117.320 2 12 282
1908229N20124 1908 31 WP MM NOT_NAMED 1908-08-18 04:00:00 NR 29.3000 117.100 main 0 0 __________O___ -1 29.3000 117.100 2 12 279
1908229N20124 1908 31 WP MM NOT_NAMED 1908-08-18 06:00:00 NR 29.3615 116.653 main 0 0 __________P___ -1 29.3615 116.653 2 12 276
1908229N20124 1908 31 WP MM NOT_NAMED 1908-08-18 09:00:00 NR 29.4037 115.965 main 0 0 __________P___ -1 29.4037 115.965 2 12 271
1908229N20124 1908 31 WP MM NOT_NAMED 1908-08-18 12:00:00 NR 29.3911 115.276 main 0 0 __________P___ -1 29.3911 115.276 2 12 266
1908229N20124 1908 31 WP MM NOT_NAMED 1908-08-18 15:00:00 NR 29.3300 114.612 main 0 0 __________P___ -1 29.3300 114.612 2 12 263
1908229N20124 1908 31 WP MM NOT_NAMED 1908-08-18 16:00:00 NR 29.3000 114.400 main 0 0 __________O___ -1 29.3000 114.400 2 11 259
1908229N20124 1908 31 WP MM NOT_NAMED 1908-08-18 18:00:00 NR 29.2272 113.994 main 0 0 __________P___ -1 29.2272 113.994 2 11 256
1908229N20124 1908 31 WP MM NOT_NAMED 1908-08-18 21:00:00 NR 29.0915 113.423 main 0 0 __________P___ -1 29.0915 113.423 2 10 253
1908229N20124 1908 31 WP MM NOT_NAMED 1908-08-19 00:00:00 NR 28.9324 112.887 main 0 0 __________P___ -1 28.9324 112.887 2 10 250
1908229N20124 1908 31 WP MM NOT_NAMED 1908-08-19 03:00:00 NR 28.7593 112.370 main 0 0 __________P___ -1 28.7593 112.370 2 10 249
1908229N20124 1908 31 WP MM NOT_NAMED 1908-08-19 04:00:00 NR 28.7000 112.200 main 0 __________O___ -1 28.7000 112.200 2 10 248

Digital Typhoon Data and Search

About IBTrACS Database

This database is a web-friendly format of International Best Track Archive for Climate Stewardship (IBTrACS), a global best track data archive curated by NOAA dating back to 1842.

Updated: 2021-12-01